< < Back
Terminal Aerodrome Forecast


Current Version              Previous Versions:   1  2  3  4  5  6  7  8  9  

Terminal Aerodrome Forecast

929
FTUS42 KFFC 211700
TAFATL
TAF
KATL 211720Z 2118/2224 30010G17KT P6SM FEW040
     FM220000 33008KT P6SM SKC=



Latest METAR

633
SAUS70 KWBC 220000 RRC
MTRATL
METAR KATL 212352Z 31006KT 10SM CLR 19/08 A2998 RMK AO2 SLP151 T01890078
10250 20189 53009


USA.gov is the U.S. government's official web portal to all federal, state and local government web resources and services.